sensor_id;sensor_type;location;lat;lon;timestamp;P1;durP1;ratioP1;P2;durP2;ratioP2
3343;SDS011;1685;53.104;8.228;2023-03-30T00:00:11;29.40;;;22.03;;
3343;SDS011;1685;53.104;8.228;2023-03-30T00:02:42;33.20;;;23.20;;
3343;SDS011;1685;53.104;8.228;2023-03-30T00:05:10;35.27;;;22.90;;
3343;SDS011;1685;53.104;8.228;2023-03-30T00:07:37;26.73;;;20.87;;
3343;SDS011;1685;53.104;8.228;2023-03-30T00:10:06;38.03;;;20.70;;
3343;SDS011;1685;53.104;8.228;2023-03-30T00:12:35;31.53;;;21.40;;
3343;SDS011;1685;53.104;8.228;2023-03-30T00:15:03;35.43;;;21.83;;
3343;SDS011;1685;53.104;8.228;2023-03-30T00:17:31;31.90;;;20.63;;
3343;SDS011;1685;53.104;8.228;2023-03-30T00:19:58;26.23;;;20.47;;
3343;SDS011;1685;53.104;8.228;2023-03-30T00:22:30;34.67;;;21.17;;
3343;SDS011;1685;53.104;8.228;2023-03-30T00:24:57;32.20;;;21.40;;
3343;SDS011;1685;53.104;8.228;2023-03-30T00:27:25;35.53;;;21.03;;
3343;SDS011;1685;53.104;8.228;2023-03-30T00:29:53;29.47;;;20.33;;
3343;SDS011;1685;53.104;8.228;2023-03-30T00:32:20;27.70;;;20.97;;
3343;SDS011;1685;53.104;8.228;2023-03-30T00:34:47;24.10;;;18.87;;
3343;SDS011;1685;53.104;8.228;2023-03-30T00:37:14;25.53;;;18.93;;
3343;SDS011;1685;53.104;8.228;2023-03-30T00:39:41;26.30;;;19.50;;
3343;SDS011;1685;53.104;8.228;2023-03-30T00:42:11;27.67;;;17.57;;
3343;SDS011;1685;53.104;8.228;2023-03-30T00:47:43;24.43;;;18.80;;
3343;SDS011;1685;53.104;8.228;2023-03-30T00:50:14;28.10;;;19.70;;
3343;SDS011;1685;53.104;8.228;2023-03-30T00:52:42;27.77;;;20.40;;
3343;SDS011;1685;53.104;8.228;2023-03-30T00:55:10;32.20;;;19.83;;
3343;SDS011;1685;53.104;8.228;2023-03-30T00:57:38;25.63;;;18.90;;
3343;SDS011;1685;53.104;8.228;2023-03-30T01:00:07;24.67;;;19.37;;
3343;SDS011;1685;53.104;8.228;2023-03-30T01:02:38;30.43;;;19.00;;
3343;SDS011;1685;53.104;8.228;2023-03-30T01:05:08;27.00;;;17.60;;
3343;SDS011;1685;53.104;8.228;2023-03-30T01:07:36;25.03;;;18.67;;
3343;SDS011;1685;53.104;8.228;2023-03-30T01:10:04;27.37;;;18.87;;
3343;SDS011;1685;53.104;8.228;2023-03-30T01:12:33;27.07;;;18.63;;
3343;SDS011;1685;53.104;8.228;2023-03-30T01:15:00;26.07;;;18.47;;
3343;SDS011;1685;53.104;8.228;2023-03-30T01:17:28;23.67;;;18.07;;
3343;SDS011;1685;53.104;8.228;2023-03-30T01:23:09;27.33;;;17.17;;
3343;SDS011;1685;53.104;8.228;2023-03-30T01:26:04;24.43;;;17.77;;
3343;SDS011;1685;53.104;8.228;2023-03-30T01:28:59;21.63;;;17.03;;
3343;SDS011;1685;53.104;8.228;2023-03-30T01:31:39;24.00;;;16.40;;
3343;SDS011;1685;53.104;8.228;2023-03-30T01:40:31;23.40;;;17.07;;
3343;SDS011;1685;53.104;8.228;2023-03-30T01:43:05;22.97;;;17.60;;
3343;SDS011;1685;53.104;8.228;2023-03-30T01:45:41;21.93;;;14.93;;
3343;SDS011;1685;53.104;8.228;2023-03-30T01:48:12;18.40;;;15.93;;
3343;SDS011;1685;53.104;8.228;2023-03-30T01:50:42;19.80;;;15.93;;
3343;SDS011;1685;53.104;8.228;2023-03-30T01:53:15;22.50;;;14.70;;
3343;SDS011;1685;53.104;8.228;2023-03-30T01:55:50;22.50;;;14.70;;
3343;SDS011;1685;53.104;8.228;2023-03-30T01:58:24;21.77;;;15.23;;
3343;SDS011;1685;53.104;8.228;2023-03-30T02:00:54;19.37;;;14.30;;
3343;SDS011;1685;53.104;8.228;2023-03-30T02:03:23;18.00;;;14.40;;
3343;SDS011;1685;53.104;8.228;2023-03-30T02:05:53;17.70;;;13.53;;
3343;SDS011;1685;53.104;8.228;2023-03-30T02:08:25;23.50;;;13.83;;
3343;SDS011;1685;53.104;8.228;2023-03-30T02:10:56;19.77;;;13.87;;
3343;SDS011;1685;53.104;8.228;2023-03-30T02:13:24;17.13;;;13.30;;
3343;SDS011;1685;53.104;8.228;2023-03-30T02:15:54;14.60;;;12.07;;
3343;SDS011;1685;53.104;8.228;2023-03-30T02:18:23;22.90;;;14.13;;
3343;SDS011;1685;53.104;8.228;2023-03-30T02:20:51;20.33;;;13.10;;
3343;SDS011;1685;53.104;8.228;2023-03-30T02:23:20;22.17;;;13.77;;
3343;SDS011;1685;53.104;8.228;2023-03-30T02:25:50;17.77;;;12.60;;
3343;SDS011;1685;53.104;8.228;2023-03-30T02:28:18;17.20;;;12.13;;
3343;SDS011;1685;53.104;8.228;2023-03-30T02:30:45;17.27;;;12.30;;
3343;SDS011;1685;53.104;8.228;2023-03-30T02:33:14;18.17;;;12.50;;
3343;SDS011;1685;53.104;8.228;2023-03-30T02:35:55;14.43;;;12.13;;
3343;SDS011;1685;53.104;8.228;2023-03-30T02:38:44;17.50;;;10.97;;
3343;SDS011;1685;53.104;8.228;2023-03-30T02:41:40;14.30;;;11.20;;
3343;SDS011;1685;53.104;8.228;2023-03-30T02:44:17;14.87;;;10.70;;
3343;SDS011;1685;53.104;8.228;2023-03-30T02:46:56;16.20;;;10.20;;
3343;SDS011;1685;53.104;8.228;2023-03-30T02:49:33;20.17;;;9.30;;
3343;SDS011;1685;53.104;8.228;2023-03-30T02:52:13;16.70;;;10.17;;
3343;SDS011;1685;53.104;8.228;2023-03-30T02:54:47;11.00;;;8.93;;
3343;SDS011;1685;53.104;8.228;2023-03-30T02:57:24;12.40;;;8.13;;
3343;SDS011;1685;53.104;8.228;2023-03-30T02:59:59;15.27;;;9.30;;
3343;SDS011;1685;53.104;8.228;2023-03-30T03:02:32;13.67;;;8.17;;
3343;SDS011;1685;53.104;8.228;2023-03-30T03:05:04;12.67;;;7.00;;
3343;SDS011;1685;53.104;8.228;2023-03-30T03:07:32;11.10;;;8.20;;
3343;SDS011;1685;53.104;8.228;2023-03-30T03:10:00;23.43;;;8.97;;
3343;SDS011;1685;53.104;8.228;2023-03-30T03:12:27;9.33;;;7.93;;
3343;SDS011;1685;53.104;8.228;2023-03-30T03:14:54;11.83;;;8.03;;
3343;SDS011;1685;53.104;8.228;2023-03-30T03:17:23;8.67;;;7.80;;
3343;SDS011;1685;53.104;8.228;2023-03-30T03:19:53;9.30;;;7.43;;
3343;SDS011;1685;53.104;8.228;2023-03-30T03:22:20;13.83;;;8.07;;
3343;SDS011;1685;53.104;8.228;2023-03-30T03:24:48;8.60;;;7.70;;
3343;SDS011;1685;53.104;8.228;2023-03-30T03:27:16;10.17;;;7.30;;
3343;SDS011;1685;53.104;8.228;2023-03-30T03:29:43;13.43;;;6.50;;
3343;SDS011;1685;53.104;8.228;2023-03-30T03:32:10;11.67;;;7.93;;
3343;SDS011;1685;53.104;8.228;2023-03-30T03:34:38;12.97;;;7.90;;
3343;SDS011;1685;53.104;8.228;2023-03-30T03:37:08;10.57;;;7.00;;
3343;SDS011;1685;53.104;8.228;2023-03-30T03:39:35;10.40;;;7.80;;
3343;SDS011;1685;53.104;8.228;2023-03-30T03:42:03;8.37;;;7.27;;
3343;SDS011;1685;53.104;8.228;2023-03-30T03:44:30;10.50;;;6.73;;
3343;SDS011;1685;53.104;8.228;2023-03-30T03:46:57;8.43;;;7.50;;
3343;SDS011;1685;53.104;8.228;2023-03-30T03:49:24;9.07;;;7.27;;
3343;SDS011;1685;53.104;8.228;2023-03-30T03:51:52;11.17;;;7.13;;
3343;SDS011;1685;53.104;8.228;2023-03-30T03:54:19;10.57;;;6.60;;
3343;SDS011;1685;53.104;8.228;2023-03-30T03:56:46;10.73;;;7.27;;
3343;SDS011;1685;53.104;8.228;2023-03-30T03:59:13;8.60;;;6.20;;
3343;SDS011;1685;53.104;8.228;2023-03-30T04:01:40;8.23;;;6.10;;
3343;SDS011;1685;53.104;8.228;2023-03-30T04:04:07;12.20;;;6.80;;
3343;SDS011;1685;53.104;8.228;2023-03-30T04:06:34;7.83;;;6.10;;
3343;SDS011;1685;53.104;8.228;2023-03-30T04:09:03;9.07;;;6.60;;
3343;SDS011;1685;53.104;8.228;2023-03-30T04:11:30;8.00;;;6.60;;
3343;SDS011;1685;53.104;8.228;2023-03-30T04:13:57;8.93;;;5.80;;
3343;SDS011;1685;53.104;8.228;2023-03-30T04:16:24;7.77;;;6.60;;
3343;SDS011;1685;53.104;8.228;2023-03-30T04:18:52;8.47;;;5.60;;
3343;SDS011;1685;53.104;8.228;2023-03-30T04:21:21;8.17;;;5.50;;
3343;SDS011;1685;53.104;8.228;2023-03-30T04:23:49;12.63;;;5.60;;
3343;SDS011;1685;53.104;8.228;2023-03-30T04:26:17;7.03;;;5.70;;
3343;SDS011;1685;53.104;8.228;2023-03-30T04:28:44;12.60;;;5.73;;
3343;SDS011;1685;53.104;8.228;2023-03-30T04:31:11;7.47;;;5.57;;
3343;SDS011;1685;53.104;8.228;2023-03-30T04:33:39;8.20;;;5.70;;
3343;SDS011;1685;53.104;8.228;2023-03-30T04:36:14;7.30;;;5.00;;
3343;SDS011;1685;53.104;8.228;2023-03-30T04:38:43;6.17;;;5.57;;
3343;SDS011;1685;53.104;8.228;2023-03-30T04:41:23;11.30;;;4.57;;
3343;SDS011;1685;53.104;8.228;2023-03-30T04:43:51;9.23;;;6.00;;
3343;SDS011;1685;53.104;8.228;2023-03-30T04:46:18;5.63;;;5.13;;
3343;SDS011;1685;53.104;8.228;2023-03-30T04:48:45;9.47;;;5.27;;
3343;SDS011;1685;53.104;8.228;2023-03-30T04:51:12;6.27;;;4.60;;
3343;SDS011;1685;53.104;8.228;2023-03-30T04:53:39;6.07;;;4.60;;
3343;SDS011;1685;53.104;8.228;2023-03-30T04:56:06;5.13;;;4.47;;
3343;SDS011;1685;53.104;8.228;2023-03-30T04:58:34;6.93;;;5.20;;
3343;SDS011;1685;53.104;8.228;2023-03-30T05:01:01;8.33;;;4.93;;
3343;SDS011;1685;53.104;8.228;2023-03-30T05:03:28;6.40;;;4.70;;
3343;SDS011;1685;53.104;8.228;2023-03-30T05:05:56;8.90;;;6.60;;
3343;SDS011;1685;53.104;8.228;2023-03-30T05:08:23;6.43;;;4.23;;
3343;SDS011;1685;53.104;8.228;2023-03-30T05:10:50;7.80;;;4.77;;
3343;SDS011;1685;53.104;8.228;2023-03-30T05:13:17;4.23;;;3.83;;
3343;SDS011;1685;53.104;8.228;2023-03-30T05:15:45;10.37;;;4.43;;
3343;SDS011;1685;53.104;8.228;2023-03-30T05:18:18;5.67;;;3.90;;
3343;SDS011;1685;53.104;8.228;2023-03-30T05:20:45;9.70;;;4.60;;
3343;SDS011;1685;53.104;8.228;2023-03-30T05:23:12;7.07;;;4.93;;
3343;SDS011;1685;53.104;8.228;2023-03-30T05:25:40;8.70;;;4.10;;
3343;SDS011;1685;53.104;8.228;2023-03-30T05:28:09;6.23;;;4.03;;
3343;SDS011;1685;53.104;8.228;2023-03-30T05:30:36;12.93;;;4.50;;
3343;SDS011;1685;53.104;8.228;2023-03-30T05:33:05;5.80;;;4.23;;
3343;SDS011;1685;53.104;8.228;2023-03-30T05:35:34;5.60;;;4.40;;
3343;SDS011;1685;53.104;8.228;2023-03-30T05:38:01;6.77;;;3.73;;
3343;SDS011;1685;53.104;8.228;2023-03-30T05:40:28;6.47;;;3.77;;
3343;SDS011;1685;53.104;8.228;2023-03-30T05:42:55;14.93;;;4.20;;
3343;SDS011;1685;53.104;8.228;2023-03-30T05:45:22;4.67;;;4.27;;
3343;SDS011;1685;53.104;8.228;2023-03-30T05:47:49;7.50;;;4.13;;
3343;SDS011;1685;53.104;8.228;2023-03-30T05:50:19;8.90;;;4.67;;
3343;SDS011;1685;53.104;8.228;2023-03-30T05:52:46;9.50;;;4.60;;
3343;SDS011;1685;53.104;8.228;2023-03-30T05:55:13;7.30;;;3.87;;
3343;SDS011;1685;53.104;8.228;2023-03-30T05:57:40;4.47;;;4.03;;
3343;SDS011;1685;53.104;8.228;2023-03-30T06:00:08;9.03;;;4.83;;
3343;SDS011;1685;53.104;8.228;2023-03-30T06:02:37;16.43;;;5.33;;
3343;SDS011;1685;53.104;8.228;2023-03-30T06:05:04;4.93;;;3.60;;
3343;SDS011;1685;53.104;8.228;2023-03-30T06:07:33;8.87;;;3.70;;
3343;SDS011;1685;53.104;8.228;2023-03-30T06:10:01;5.43;;;3.57;;
3343;SDS011;1685;53.104;8.228;2023-03-30T06:12:29;4.17;;;3.77;;
3343;SDS011;1685;53.104;8.228;2023-03-30T06:14:56;13.73;;;3.70;;
3343;SDS011;1685;53.104;8.228;2023-03-30T06:17:26;5.13;;;3.57;;
3343;SDS011;1685;53.104;8.228;2023-03-30T06:19:53;9.30;;;4.23;;
3343;SDS011;1685;53.104;8.228;2023-03-30T06:22:20;8.13;;;3.70;;
3343;SDS011;1685;53.104;8.228;2023-03-30T06:24:48;4.77;;;3.77;;
3343;SDS011;1685;53.104;8.228;2023-03-30T06:27:15;7.63;;;3.93;;
3343;SDS011;1685;53.104;8.228;2023-03-30T06:29:42;3.90;;;3.50;;
3343;SDS011;1685;53.104;8.228;2023-03-30T06:32:09;7.77;;;3.60;;
3343;SDS011;1685;53.104;8.228;2023-03-30T06:34:36;7.57;;;3.97;;
3343;SDS011;1685;53.104;8.228;2023-03-30T06:37:05;9.00;;;4.53;;
3343;SDS011;1685;53.104;8.228;2023-03-30T06:39:32;3.80;;;3.43;;
3343;SDS011;1685;53.104;8.228;2023-03-30T06:42:02;6.03;;;3.87;;
3343;SDS011;1685;53.104;8.228;2023-03-30T06:44:30;4.23;;;3.60;;
3343;SDS011;1685;53.104;8.228;2023-03-30T06:46:58;5.43;;;3.83;;
3343;SDS011;1685;53.104;8.228;2023-03-30T06:49:25;9.90;;;4.03;;
3343;SDS011;1685;53.104;8.228;2023-03-30T06:51:53;5.63;;;4.00;;
3343;SDS011;1685;53.104;8.228;2023-03-30T06:54:20;7.70;;;3.93;;
3343;SDS011;1685;53.104;8.228;2023-03-30T06:56:47;5.10;;;3.73;;
3343;SDS011;1685;53.104;8.228;2023-03-30T06:59:16;6.63;;;3.40;;
3343;SDS011;1685;53.104;8.228;2023-03-30T07:01:42;7.20;;;3.70;;
3343;SDS011;1685;53.104;8.228;2023-03-30T07:04:09;4.10;;;3.10;;
3343;SDS011;1685;53.104;8.228;2023-03-30T07:06:36;11.97;;;3.70;;
3343;SDS011;1685;53.104;8.228;2023-03-30T07:09:04;3.33;;;2.83;;
3343;SDS011;1685;53.104;8.228;2023-03-30T07:11:31;6.53;;;3.30;;
3343;SDS011;1685;53.104;8.228;2023-03-30T07:13:58;5.10;;;4.03;;
3343;SDS011;1685;53.104;8.228;2023-03-30T07:16:27;7.73;;;3.20;;
3343;SDS011;1685;53.104;8.228;2023-03-30T07:18:54;4.87;;;3.90;;
3343;SDS011;1685;53.104;8.228;2023-03-30T07:21:21;4.10;;;3.70;;
3343;SDS011;1685;53.104;8.228;2023-03-30T07:23:48;4.90;;;2.77;;
3343;SDS011;1685;53.104;8.228;2023-03-30T07:26:16;3.33;;;2.87;;
3343;SDS011;1685;53.104;8.228;2023-03-30T07:28:43;7.97;;;3.83;;
3343;SDS011;1685;53.104;8.228;2023-03-30T07:31:10;3.30;;;2.80;;
3343;SDS011;1685;53.104;8.228;2023-03-30T07:33:40;11.40;;;2.83;;
3343;SDS011;1685;53.104;8.228;2023-03-30T07:36:07;11.77;;;3.10;;
3343;SDS011;1685;53.104;8.228;2023-03-30T07:38:34;7.03;;;3.43;;
3343;SDS011;1685;53.104;8.228;2023-03-30T07:41:04;7.23;;;3.70;;
3343;SDS011;1685;53.104;8.228;2023-03-30T07:43:32;9.33;;;3.00;;
3343;SDS011;1685;53.104;8.228;2023-03-30T07:45:59;3.30;;;2.97;;
3343;SDS011;1685;53.104;8.228;2023-03-30T07:48:26;3.97;;;3.00;;
3343;SDS011;1685;53.104;8.228;2023-03-30T07:50:59;4.87;;;3.17;;
3343;SDS011;1685;53.104;8.228;2023-03-30T07:53:27;7.20;;;3.60;;
3343;SDS011;1685;53.104;8.228;2023-03-30T07:55:54;9.90;;;3.37;;
3343;SDS011;1685;53.104;8.228;2023-03-30T07:58:21;8.43;;;3.17;;
3343;SDS011;1685;53.104;8.228;2023-03-30T08:00:48;2.93;;;2.67;;
3343;SDS011;1685;53.104;8.228;2023-03-30T08:03:15;5.90;;;2.93;;
3343;SDS011;1685;53.104;8.228;2023-03-30T08:05:43;9.83;;;3.60;;
3343;SDS011;1685;53.104;8.228;2023-03-30T08:08:19;4.60;;;3.03;;
3343;SDS011;1685;53.104;8.228;2023-03-30T08:10:45;9.83;;;3.93;;
3343;SDS011;1685;53.104;8.228;2023-03-30T08:13:13;4.00;;;3.43;;
3343;SDS011;1685;53.104;8.228;2023-03-30T08:15:40;5.17;;;3.47;;
3343;SDS011;1685;53.104;8.228;2023-03-30T08:18:07;6.00;;;3.50;;
3343;SDS011;1685;53.104;8.228;2023-03-30T08:20:36;5.90;;;3.00;;
3343;SDS011;1685;53.104;8.228;2023-03-30T08:23:04;8.30;;;3.90;;
3343;SDS011;1685;53.104;8.228;2023-03-30T08:25:33;4.80;;;2.80;;
3343;SDS011;1685;53.104;8.228;2023-03-30T08:28:00;3.40;;;3.10;;
3343;SDS011;1685;53.104;8.228;2023-03-30T08:30:28;7.40;;;3.60;;
3343;SDS011;1685;53.104;8.228;2023-03-30T08:32:55;6.10;;;3.37;;
3343;SDS011;1685;53.104;8.228;2023-03-30T08:35:22;3.80;;;2.90;;
3343;SDS011;1685;53.104;8.228;2023-03-30T08:37:49;4.60;;;3.50;;
3343;SDS011;1685;53.104;8.228;2023-03-30T08:40:17;4.07;;;2.50;;
3343;SDS011;1685;53.104;8.228;2023-03-30T08:43:08;3.73;;;2.60;;
3343;SDS011;1685;53.104;8.228;2023-03-30T08:45:46;4.30;;;2.67;;
3343;SDS011;1685;53.104;8.228;2023-03-30T08:48:15;12.37;;;3.20;;
3343;SDS011;1685;53.104;8.228;2023-03-30T08:50:45;6.33;;;2.67;;
3343;SDS011;1685;53.104;8.228;2023-03-30T08:53:17;9.10;;;2.73;;
3343;SDS011;1685;53.104;8.228;2023-03-30T08:55:45;7.30;;;2.73;;
3343;SDS011;1685;53.104;8.228;2023-03-30T08:58:18;5.60;;;2.33;;
3343;SDS011;1685;53.104;8.228;2023-03-30T09:00:53;5.00;;;2.40;;
3343;SDS011;1685;53.104;8.228;2023-03-30T09:03:28;6.73;;;3.33;;
3343;SDS011;1685;53.104;8.228;2023-03-30T09:06:03;2.87;;;2.33;;
3343;SDS011;1685;53.104;8.228;2023-03-30T09:08:35;6.60;;;2.60;;
3343;SDS011;1685;53.104;8.228;2023-03-30T09:11:03;6.60;;;2.67;;
3343;SDS011;1685;53.104;8.228;2023-03-30T09:13:36;8.13;;;2.93;;
3343;SDS011;1685;53.104;8.228;2023-03-30T09:16:10;6.57;;;2.90;;
3343;SDS011;1685;53.104;8.228;2023-03-30T09:18:43;4.70;;;3.10;;
3343;SDS011;1685;53.104;8.228;2023-03-30T09:21:12;6.87;;;2.90;;
3343;SDS011;1685;53.104;8.228;2023-03-30T09:23:39;11.60;;;3.33;;
3343;SDS011;1685;53.104;8.228;2023-03-30T09:26:09;10.43;;;2.87;;
3343;SDS011;1685;53.104;8.228;2023-03-30T09:28:46;5.40;;;2.47;;
3343;SDS011;1685;53.104;8.228;2023-03-30T09:31:19;5.63;;;2.30;;
3343;SDS011;1685;53.104;8.228;2023-03-30T09:33:51;10.80;;;2.70;;
3343;SDS011;1685;53.104;8.228;2023-03-30T09:36:25;7.93;;;2.20;;
3343;SDS011;1685;53.104;8.228;2023-03-30T09:38:57;7.20;;;2.40;;
3343;SDS011;1685;53.104;8.228;2023-03-30T09:41:33;14.20;;;3.10;;
3343;SDS011;1685;53.104;8.228;2023-03-30T09:44:11;7.10;;;3.00;;
3343;SDS011;1685;53.104;8.228;2023-03-30T09:46:44;11.87;;;2.93;;
3343;SDS011;1685;53.104;8.228;2023-03-30T09:49:14;9.93;;;3.10;;
3343;SDS011;1685;53.104;8.228;2023-03-30T09:51:51;8.73;;;2.73;;
3343;SDS011;1685;53.104;8.228;2023-03-30T09:54:20;11.13;;;4.07;;
3343;SDS011;1685;53.104;8.228;2023-03-30T09:56:48;13.07;;;2.90;;
3343;SDS011;1685;53.104;8.228;2023-03-30T09:59:21;3.03;;;2.17;;
3343;SDS011;1685;53.104;8.228;2023-03-30T10:02:07;12.13;;;3.83;;
3343;SDS011;1685;53.104;8.228;2023-03-30T10:04:39;7.10;;;2.40;;
3343;SDS011;1685;53.104;8.228;2023-03-30T10:07:25;12.67;;;3.10;;
3343;SDS011;1685;53.104;8.228;2023-03-30T10:09:54;11.93;;;3.00;;
3343;SDS011;1685;53.104;8.228;2023-03-30T10:12:22;15.63;;;3.70;;
3343;SDS011;1685;53.104;8.228;2023-03-30T10:14:53;8.03;;;3.33;;
3343;SDS011;1685;53.104;8.228;2023-03-30T10:17:21;15.60;;;3.40;;
3343;SDS011;1685;53.104;8.228;2023-03-30T10:19:51;7.57;;;4.10;;
3343;SDS011;1685;53.104;8.228;2023-03-30T10:22:20;12.37;;;4.00;;
3343;SDS011;1685;53.104;8.228;2023-03-30T10:24:48;8.87;;;3.40;;
3343;SDS011;1685;53.104;8.228;2023-03-30T10:27:17;13.13;;;3.33;;
3343;SDS011;1685;53.104;8.228;2023-03-30T10:29:46;10.77;;;2.77;;
3343;SDS011;1685;53.104;8.228;2023-03-30T10:32:17;7.97;;;2.60;;
3343;SDS011;1685;53.104;8.228;2023-03-30T10:34:45;9.07;;;3.20;;
3343;SDS011;1685;53.104;8.228;2023-03-30T10:37:15;12.40;;;3.47;;
3343;SDS011;1685;53.104;8.228;2023-03-30T10:39:45;17.50;;;3.13;;
3343;SDS011;1685;53.104;8.228;2023-03-30T10:42:14;10.90;;;3.07;;
3343;SDS011;1685;53.104;8.228;2023-03-30T10:44:47;12.67;;;3.27;;
3343;SDS011;1685;53.104;8.228;2023-03-30T10:47:22;12.70;;;3.43;;
3343;SDS011;1685;53.104;8.228;2023-03-30T10:50:02;15.10;;;3.33;;
3343;SDS011;1685;53.104;8.228;2023-03-30T10:52:37;13.63;;;2.80;;
3343;SDS011;1685;53.104;8.228;2023-03-30T10:55:13;11.80;;;3.00;;
3343;SDS011;1685;53.104;8.228;2023-03-30T10:57:45;10.60;;;3.20;;
3343;SDS011;1685;53.104;8.228;2023-03-30T11:00:21;15.53;;;3.47;;
3343;SDS011;1685;53.104;8.228;2023-03-30T11:02:59;11.63;;;3.23;;
3343;SDS011;1685;53.104;8.228;2023-03-30T11:05:33;9.63;;;2.93;;
3343;SDS011;1685;53.104;8.228;2023-03-30T11:08:03;11.90;;;3.37;;
3343;SDS011;1685;53.104;8.228;2023-03-30T11:10:32;13.10;;;4.10;;
3343;SDS011;1685;53.104;8.228;2023-03-30T11:13:03;29.23;;;5.30;;
3343;SDS011;1685;53.104;8.228;2023-03-30T11:15:32;17.13;;;4.13;;
3343;SDS011;1685;53.104;8.228;2023-03-30T11:18:05;13.87;;;3.80;;
3343;SDS011;1685;53.104;8.228;2023-03-30T11:20:40;16.90;;;3.73;;
3343;SDS011;1685;53.104;8.228;2023-03-30T11:23:15;19.30;;;4.00;;
3343;SDS011;1685;53.104;8.228;2023-03-30T11:25:52;14.10;;;3.50;;
3343;SDS011;1685;53.104;8.228;2023-03-30T11:28:31;10.70;;;3.83;;
3343;SDS011;1685;53.104;8.228;2023-03-30T11:31:08;9.37;;;2.80;;
3343;SDS011;1685;53.104;8.228;2023-03-30T11:33:44;10.07;;;3.97;;
3343;SDS011;1685;53.104;8.228;2023-03-30T11:36:19;18.73;;;3.90;;
3343;SDS011;1685;53.104;8.228;2023-03-30T11:38:53;13.70;;;4.13;;
3343;SDS011;1685;53.104;8.228;2023-03-30T11:41:28;16.10;;;2.93;;
3343;SDS011;1685;53.104;8.228;2023-03-30T11:44:01;12.20;;;2.63;;
3343;SDS011;1685;53.104;8.228;2023-03-30T11:46:29;12.17;;;3.80;;
3343;SDS011;1685;53.104;8.228;2023-03-30T11:49:08;10.73;;;2.93;;
3343;SDS011;1685;53.104;8.228;2023-03-30T11:51:48;12.63;;;3.47;;
3343;SDS011;1685;53.104;8.228;2023-03-30T11:54:36;5.77;;;2.60;;
3343;SDS011;1685;53.104;8.228;2023-03-30T11:57:23;7.37;;;2.47;;
3343;SDS011;1685;53.104;8.228;2023-03-30T12:00:02;9.50;;;3.00;;
3343;SDS011;1685;53.104;8.228;2023-03-30T12:02:47;8.57;;;2.50;;
3343;SDS011;1685;53.104;8.228;2023-03-30T12:05:22;4.87;;;1.80;;
3343;SDS011;1685;53.104;8.228;2023-03-30T12:07:56;8.87;;;2.40;;
3343;SDS011;1685;53.104;8.228;2023-03-30T12:10:35;11.93;;;2.30;;
3343;SDS011;1685;53.104;8.228;2023-03-30T12:13:04;7.80;;;2.60;;
3343;SDS011;1685;53.104;8.228;2023-03-30T12:15:33;6.40;;;2.70;;
3343;SDS011;1685;53.104;8.228;2023-03-30T12:18:10;8.13;;;2.60;;
3343;SDS011;1685;53.104;8.228;2023-03-30T12:20:48;10.87;;;2.13;;
3343;SDS011;1685;53.104;8.228;2023-03-30T12:23:20;9.17;;;2.90;;
3343;SDS011;1685;53.104;8.228;2023-03-30T12:26:05;10.00;;;2.50;;
3343;SDS011;1685;53.104;8.228;2023-03-30T12:28:38;8.10;;;1.80;;
3343;SDS011;1685;53.104;8.228;2023-03-30T12:31:08;6.70;;;1.90;;
3343;SDS011;1685;53.104;8.228;2023-03-30T12:33:36;8.67;;;2.40;;
3343;SDS011;1685;53.104;8.228;2023-03-30T12:36:21;10.80;;;2.17;;
3343;SDS011;1685;53.104;8.228;2023-03-30T12:38:51;12.83;;;3.13;;
3343;SDS011;1685;53.104;8.228;2023-03-30T12:41:22;7.90;;;1.83;;
3343;SDS011;1685;53.104;8.228;2023-03-30T12:46:52;11.00;;;2.83;;
3343;SDS011;1685;53.104;8.228;2023-03-30T12:49:30;6.47;;;2.27;;
3343;SDS011;1685;53.104;8.228;2023-03-30T12:52:05;13.47;;;2.93;;
3343;SDS011;1685;53.104;8.228;2023-03-30T12:54:41;11.60;;;2.00;;
3343;SDS011;1685;53.104;8.228;2023-03-30T12:57:19;8.40;;;2.90;;
3343;SDS011;1685;53.104;8.228;2023-03-30T13:00:14;10.70;;;2.60;;
3343;SDS011;1685;53.104;8.228;2023-03-30T13:03:01;9.43;;;2.60;;
3343;SDS011;1685;53.104;8.228;2023-03-30T13:05:40;7.30;;;2.60;;
3343;SDS011;1685;53.104;8.228;2023-03-30T13:08:15;13.73;;;2.73;;
3343;SDS011;1685;53.104;8.228;2023-03-30T13:10:43;16.43;;;2.67;;
3343;SDS011;1685;53.104;8.228;2023-03-30T13:13:20;9.77;;;2.50;;
3343;SDS011;1685;53.104;8.228;2023-03-30T13:15:49;4.67;;;2.80;;
3343;SDS011;1685;53.104;8.228;2023-03-30T13:18:22;13.53;;;3.00;;
3343;SDS011;1685;53.104;8.228;2023-03-30T13:21:14;6.77;;;1.97;;
3343;SDS011;1685;53.104;8.228;2023-03-30T13:23:48;5.47;;;2.20;;
3343;SDS011;1685;53.104;8.228;2023-03-30T13:26:26;17.00;;;4.00;;
3343;SDS011;1685;53.104;8.228;2023-03-30T13:28:54;16.00;;;4.53;;
3343;SDS011;1685;53.104;8.228;2023-03-30T13:31:35;12.47;;;2.90;;
3343;SDS011;1685;53.104;8.228;2023-03-30T13:34:14;15.13;;;2.30;;
3343;SDS011;1685;53.104;8.228;2023-03-30T13:36:45;6.20;;;2.43;;
3343;SDS011;1685;53.104;8.228;2023-03-30T13:39:23;6.83;;;1.73;;
3343;SDS011;1685;53.104;8.228;2023-03-30T13:41:57;9.10;;;2.10;;
3343;SDS011;1685;53.104;8.228;2023-03-30T13:44:47;6.33;;;1.70;;
3343;SDS011;1685;53.104;8.228;2023-03-30T13:47:26;7.80;;;1.80;;
3343;SDS011;1685;53.104;8.228;2023-03-30T13:50:12;7.73;;;2.40;;
3343;SDS011;1685;53.104;8.228;2023-03-30T13:52:41;9.60;;;2.33;;
3343;SDS011;1685;53.104;8.228;2023-03-30T13:55:15;14.50;;;3.07;;
3343;SDS011;1685;53.104;8.228;2023-03-30T13:57:43;11.80;;;2.33;;
3343;SDS011;1685;53.104;8.228;2023-03-30T14:00:20;9.60;;;2.80;;
3343;SDS011;1685;53.104;8.228;2023-03-30T14:02:49;16.27;;;3.50;;
3343;SDS011;1685;53.104;8.228;2023-03-30T14:05:17;12.00;;;2.30;;
3343;SDS011;1685;53.104;8.228;2023-03-30T14:07:46;11.90;;;3.00;;
3343;SDS011;1685;53.104;8.228;2023-03-30T14:10:15;9.20;;;2.73;;
3343;SDS011;1685;53.104;8.228;2023-03-30T14:12:43;14.73;;;2.60;;
3343;SDS011;1685;53.104;8.228;2023-03-30T14:15:17;8.67;;;2.57;;
3343;SDS011;1685;53.104;8.228;2023-03-30T14:17:49;11.97;;;2.20;;
3343;SDS011;1685;53.104;8.228;2023-03-30T14:20:19;14.50;;;2.93;;
3343;SDS011;1685;53.104;8.228;2023-03-30T14:22:54;10.23;;;2.03;;
3343;SDS011;1685;53.104;8.228;2023-03-30T14:25:26;8.10;;;2.00;;
3343;SDS011;1685;53.104;8.228;2023-03-30T14:27:55;13.10;;;2.50;;
3343;SDS011;1685;53.104;8.228;2023-03-30T14:30:23;12.47;;;2.60;;
3343;SDS011;1685;53.104;8.228;2023-03-30T14:33:05;8.83;;;2.47;;
3343;SDS011;1685;53.104;8.228;2023-03-30T14:35:34;8.50;;;2.57;;
3343;SDS011;1685;53.104;8.228;2023-03-30T14:38:03;15.80;;;3.50;;
3343;SDS011;1685;53.104;8.228;2023-03-30T14:40:32;14.00;;;3.10;;
3343;SDS011;1685;53.104;8.228;2023-03-30T14:43:03;11.33;;;3.10;;
3343;SDS011;1685;53.104;8.228;2023-03-30T14:45:30;11.50;;;2.63;;
3343;SDS011;1685;53.104;8.228;2023-03-30T14:47:58;10.67;;;2.60;;
3343;SDS011;1685;53.104;8.228;2023-03-30T14:50:25;10.67;;;3.20;;
3343;SDS011;1685;53.104;8.228;2023-03-30T14:52:52;10.20;;;2.90;;
3343;SDS011;1685;53.104;8.228;2023-03-30T14:55:21;10.77;;;3.10;;
3343;SDS011;1685;53.104;8.228;2023-03-30T14:57:51;13.20;;;2.50;;
3343;SDS011;1685;53.104;8.228;2023-03-30T15:00:20;11.73;;;2.70;;
3343;SDS011;1685;53.104;8.228;2023-03-30T15:02:49;8.80;;;2.13;;
3343;SDS011;1685;53.104;8.228;2023-03-30T15:05:18;8.23;;;3.00;;
3343;SDS011;1685;53.104;8.228;2023-03-30T15:07:47;9.67;;;2.37;;
3343;SDS011;1685;53.104;8.228;2023-03-30T15:10:19;11.63;;;3.10;;
3343;SDS011;1685;53.104;8.228;2023-03-30T15:12:47;11.30;;;2.70;;
3343;SDS011;1685;53.104;8.228;2023-03-30T15:15:16;12.60;;;2.47;;
3343;SDS011;1685;53.104;8.228;2023-03-30T15:17:49;12.63;;;3.70;;
3343;SDS011;1685;53.104;8.228;2023-03-30T15:20:16;12.57;;;2.60;;
3343;SDS011;1685;53.104;8.228;2023-03-30T15:22:44;12.30;;;2.77;;
3343;SDS011;1685;53.104;8.228;2023-03-30T15:25:14;15.20;;;2.80;;
3343;SDS011;1685;53.104;8.228;2023-03-30T15:27:44;10.10;;;2.47;;
3343;SDS011;1685;53.104;8.228;2023-03-30T15:30:21;12.80;;;2.80;;
3343;SDS011;1685;53.104;8.228;2023-03-30T15:32:53;14.20;;;3.00;;
3343;SDS011;1685;53.104;8.228;2023-03-30T15:35:21;12.53;;;2.70;;
3343;SDS011;1685;53.104;8.228;2023-03-30T15:37:51;11.40;;;2.43;;
3343;SDS011;1685;53.104;8.228;2023-03-30T15:40:27;16.77;;;2.73;;
3343;SDS011;1685;53.104;8.228;2023-03-30T15:43:15;12.87;;;2.90;;